createdAt,value
2023-03-12T00:00:01.102Z,0.00
2023-03-12T00:01:01.050Z,0.00
2023-03-12T00:02:01.058Z,0.00
2023-03-12T00:03:01.009Z,0.00
2023-03-12T00:04:01.019Z,0.00
2023-03-12T00:05:00.984Z,0.00
2023-03-12T00:06:09.951Z,0.00
2023-03-12T00:07:00.980Z,0.00
2023-03-12T00:08:05.980Z,0.00
2023-03-12T00:09:00.942Z,0.00
2023-03-12T00:10:00.933Z,0.00
2023-03-12T00:11:00.920Z,0.00
2023-03-12T00:12:00.969Z,0.00
2023-03-12T00:13:00.908Z,0.00
2023-03-12T00:14:00.891Z,0.00
2023-03-12T00:15:00.914Z,0.00
2023-03-12T00:16:00.913Z,0.00
2023-03-12T00:17:00.900Z,0.00
2023-03-12T00:18:00.885Z,0.00
2023-03-12T00:19:05.856Z,0.00
2023-03-12T00:20:00.852Z,0.00
2023-03-12T00:21:00.824Z,0.00
2023-03-12T00:22:00.832Z,0.00
2023-03-12T00:23:00.790Z,0.00
2023-03-12T00:24:00.814Z,0.00
2023-03-12T00:25:00.790Z,0.00
2023-03-12T00:26:00.789Z,0.00
2023-03-12T00:27:00.791Z,0.00
2023-03-12T00:28:00.736Z,0.00
2023-03-12T00:29:00.722Z,0.00
2023-03-12T00:30:05.830Z,0.00
2023-03-12T00:31:00.764Z,0.00
2023-03-12T00:32:00.705Z,0.00
2023-03-12T00:33:00.683Z,0.00
2023-03-12T00:34:00.689Z,0.00
2023-03-12T00:35:00.658Z,0.00
2023-03-12T00:36:00.692Z,0.00
2023-03-12T00:37:00.651Z,0.00
2023-03-12T00:38:00.630Z,0.00
2023-03-12T00:39:00.611Z,0.00
2023-03-12T00:40:00.602Z,0.00
2023-03-12T00:41:05.614Z,0.00
2023-03-12T00:42:00.613Z,0.00
2023-03-12T00:43:00.569Z,0.00
2023-03-12T00:44:00.558Z,0.00
2023-03-12T00:45:00.552Z,0.00
2023-03-12T00:46:00.554Z,0.00
2023-03-12T00:47:00.590Z,0.00
2023-03-12T00:48:00.562Z,0.00
2023-03-12T00:49:00.504Z,0.00
2023-03-12T00:50:00.508Z,0.00
2023-03-12T00:51:00.483Z,0.00
2023-03-12T00:52:05.499Z,0.00
2023-03-12T00:53:00.455Z,0.00
2023-03-12T00:54:00.516Z,0.00
2023-03-12T00:55:00.452Z,0.00
2023-03-12T00:56:00.421Z,0.00
2023-03-12T00:57:00.424Z,0.00
2023-03-12T00:58:00.399Z,0.00
2023-03-12T00:59:00.403Z,0.00
2023-03-12T01:00:00.409Z,0.00
2023-03-12T01:01:00.419Z,0.00
2023-03-12T01:02:00.374Z,0.00
2023-03-12T01:03:05.370Z,0.00
2023-03-12T01:04:00.374Z,0.00
2023-03-12T01:05:00.350Z,0.00
2023-03-12T01:06:00.358Z,0.00
2023-03-12T01:07:00.318Z,0.00
2023-03-12T01:08:00.298Z,0.00
2023-03-12T01:09:00.287Z,0.00
2023-03-12T01:10:00.279Z,0.00
2023-03-12T01:11:00.279Z,0.00
2023-03-12T01:12:00.318Z,0.00
2023-03-12T01:13:00.243Z,0.00
2023-03-12T01:14:05.251Z,0.00
2023-03-12T01:15:00.223Z,0.00
2023-03-12T01:16:00.326Z,0.00
2023-03-12T01:17:00.210Z,0.00
2023-03-12T01:18:00.228Z,0.00
2023-03-12T01:19:00.180Z,0.00
2023-03-12T01:20:00.168Z,0.00
2023-03-12T01:21:00.157Z,0.00
2023-03-12T01:22:00.168Z,0.00
2023-03-12T01:23:00.136Z,0.00
2023-03-12T01:24:00.156Z,0.00
2023-03-12T01:25:05.149Z,0.00
2023-03-12T01:26:00.129Z,0.00
2023-03-12T01:27:00.097Z,0.00
2023-03-12T01:28:00.119Z,0.00
2023-03-12T01:29:00.071Z,0.00
2023-03-12T01:30:00.098Z,0.00
2023-03-12T01:31:00.050Z,0.00
2023-03-12T01:32:00.055Z,0.00
2023-03-12T01:33:00.023Z,0.00
2023-03-12T01:34:00.010Z,0.00
2023-03-12T01:35:00.001Z,0.00
2023-03-12T01:36:05.164Z,0.00
2023-03-12T01:36:59.992Z,0.00
2023-03-12T01:37:59.993Z,0.00
2023-03-12T01:38:59.967Z,0.00
2023-03-12T01:39:59.940Z,0.00
2023-03-12T01:40:59.948Z,0.00
2023-03-12T01:41:59.965Z,0.00
2023-03-12T01:42:59.910Z,0.00
2023-03-12T01:43:59.896Z,0.00
2023-03-12T01:44:59.891Z,0.00
2023-03-12T01:45:59.943Z,0.00
2023-03-12T01:47:04.902Z,0.00
2023-03-12T01:47:59.902Z,0.00
2023-03-12T01:48:59.844Z,0.00
2023-03-12T01:49:59.830Z,0.00
2023-03-12T01:50:59.828Z,0.00
2023-03-12T01:52:00.112Z,0.00
2023-03-12T01:52:59.827Z,0.00
2023-03-12T01:53:59.851Z,0.00
2023-03-12T01:54:59.778Z,0.00
2023-03-12T01:55:59.764Z,0.00
2023-03-12T01:56:59.757Z,0.00
2023-03-12T01:58:04.771Z,0.00
2023-03-12T01:58:59.735Z,0.00
2023-03-12T01:59:59.815Z,0.00
2023-03-12T02:00:59.743Z,0.00
2023-03-12T02:01:59.703Z,0.00
2023-03-12T02:02:59.724Z,0.00
2023-03-12T02:03:59.754Z,0.00
2023-03-12T02:04:59.664Z,0.00
2023-03-12T02:05:59.687Z,0.00
2023-03-12T02:06:59.659Z,0.00
2023-03-12T02:07:59.643Z,0.00
2023-03-12T02:09:04.665Z,0.00
2023-03-12T02:09:59.610Z,0.00
2023-03-12T02:10:59.599Z,0.00
2023-03-12T02:11:59.605Z,0.00
2023-03-12T02:12:59.641Z,0.00
2023-03-12T02:13:59.569Z,0.00
2023-03-12T02:14:59.556Z,0.00
2023-03-12T02:15:59.598Z,0.00
2023-03-12T02:16:59.550Z,0.00
2023-03-12T02:17:59.565Z,0.00
2023-03-12T02:18:59.552Z,0.00
2023-03-12T02:20:04.528Z,0.00
2023-03-12T02:20:59.493Z,0.00
2023-03-12T02:21:59.477Z,0.00
2023-03-12T02:22:59.479Z,0.00
2023-03-12T02:23:59.484Z,0.00
2023-03-12T02:24:59.485Z,0.00
2023-03-12T02:25:59.449Z,0.00
2023-03-12T02:26:59.429Z,0.00
2023-03-12T02:27:59.424Z,0.00
2023-03-12T02:28:59.408Z,0.00
2023-03-12T02:29:59.429Z,0.00
2023-03-12T02:31:04.546Z,0.00
2023-03-12T02:31:59.483Z,0.00
2023-03-12T02:32:59.478Z,0.00
2023-03-12T02:33:59.350Z,0.00
2023-03-12T02:34:59.337Z,0.00
2023-03-12T02:35:59.362Z,0.00
2023-03-12T02:36:59.356Z,0.00
2023-03-12T02:37:59.320Z,0.00
2023-03-12T02:38:59.297Z,0.00
2023-03-12T02:39:59.281Z,0.00
2023-03-12T02:40:59.293Z,0.00
2023-03-12T02:42:04.289Z,0.00
2023-03-12T02:42:59.303Z,0.00
2023-03-12T02:43:59.239Z,0.00
2023-03-12T02:44:59.229Z,0.00
2023-03-12T02:45:59.246Z,0.00
2023-03-12T02:46:59.244Z,0.00
2023-03-12T02:47:59.204Z,0.00
2023-03-12T02:48:59.185Z,0.00
2023-03-12T02:49:59.216Z,0.00
2023-03-12T02:50:59.168Z,0.00
2023-03-12T02:51:59.156Z,0.00
2023-03-12T02:53:04.177Z,0.00
2023-03-12T02:53:59.129Z,0.00
2023-03-12T02:54:59.119Z,0.00
2023-03-12T02:55:59.158Z,0.00
2023-03-12T02:56:59.119Z,0.00
2023-03-12T02:57:59.097Z,0.00
2023-03-12T02:58:59.077Z,0.00
2023-03-12T02:59:59.062Z,0.00
2023-03-12T03:00:59.107Z,0.00
2023-03-12T03:01:59.082Z,0.00
2023-03-12T03:02:59.058Z,0.00
2023-03-12T03:04:04.107Z,0.00
2023-03-12T03:04:59.012Z,0.00
2023-03-12T03:05:58.998Z,0.00
2023-03-12T03:06:58.997Z,0.00
2023-03-12T03:07:59.014Z,0.00
2023-03-12T03:08:58.981Z,0.00
2023-03-12T03:09:58.959Z,0.00
2023-03-12T03:10:58.949Z,0.00
2023-03-12T03:11:58.935Z,0.00
2023-03-12T03:12:58.942Z,0.00
2023-03-12T03:13:58.998Z,0.00
2023-03-12T03:15:04.126Z,0.00
2023-03-12T03:15:59.007Z,0.00
2023-03-12T03:16:58.878Z,0.00
2023-03-12T03:17:58.898Z,0.00
2023-03-12T03:18:58.872Z,0.00
2023-03-12T03:19:58.905Z,0.00
2023-03-12T03:20:58.838Z,0.00
2023-03-12T03:21:58.837Z,0.00
2023-03-12T03:22:58.822Z,0.00
2023-03-12T03:23:58.817Z,0.00
2023-03-12T03:24:58.809Z,0.00
2023-03-12T03:26:03.877Z,0.00
2023-03-12T03:26:58.782Z,0.00
2023-03-12T03:27:58.772Z,0.00
2023-03-12T03:28:58.785Z,0.00
2023-03-12T03:29:58.750Z,0.00
2023-03-12T03:30:58.763Z,0.00
2023-03-12T03:31:58.771Z,0.00
2023-03-12T03:32:58.706Z,0.00
2023-03-12T03:33:58.733Z,0.00
2023-03-12T03:34:58.686Z,0.00
2023-03-12T03:35:58.792Z,0.00
2023-03-12T03:37:03.695Z,0.00
2023-03-12T03:37:58.677Z,0.00
2023-03-12T03:38:58.650Z,0.00
2023-03-12T03:39:58.629Z,0.00
2023-03-12T03:40:58.620Z,0.00
2023-03-12T03:41:58.611Z,0.00
2023-03-12T03:42:58.597Z,0.00
2023-03-12T03:43:58.636Z,0.00
2023-03-12T03:44:58.601Z,0.00
2023-03-12T03:45:58.607Z,0.00
2023-03-12T03:46:58.550Z,0.00
2023-03-12T03:48:03.570Z,0.00
2023-03-12T03:48:58.553Z,0.00
2023-03-12T03:49:58.553Z,0.00
2023-03-12T03:50:58.509Z,0.00
2023-03-12T03:51:58.499Z,0.00
2023-03-12T03:52:58.488Z,0.00
2023-03-12T03:53:58.492Z,0.00
2023-03-12T03:54:58.467Z,0.00
2023-03-12T03:55:58.508Z,0.00
2023-03-12T03:56:58.444Z,0.00
2023-03-12T03:57:58.431Z,0.00
2023-03-12T03:59:03.450Z,0.00
2023-03-12T03:59:58.413Z,0.00
2023-03-12T04:00:58.421Z,0.00
2023-03-12T04:01:58.448Z,0.00
2023-03-12T04:02:58.409Z,0.00
2023-03-12T04:03:58.389Z,0.00
2023-03-12T04:04:58.358Z,0.00
2023-03-12T04:05:58.373Z,0.00
2023-03-12T04:06:58.341Z,0.00
2023-03-12T04:07:58.362Z,0.00
2023-03-12T04:08:58.319Z,0.00
2023-03-12T04:10:03.324Z,0.00
2023-03-12T04:10:58.297Z,0.00
2023-03-12T04:11:58.276Z,0.00
2023-03-12T04:12:58.267Z,0.00
2023-03-12T04:13:58.305Z,0.00
2023-03-12T04:14:58.252Z,0.00
2023-03-12T04:15:58.275Z,0.00
2023-03-12T04:16:58.248Z,0.00
2023-03-12T04:17:58.253Z,0.00
2023-03-12T04:18:58.218Z,0.00
2023-03-12T04:19:58.259Z,0.00
2023-03-12T04:21:03.200Z,0.00
2023-03-12T04:21:58.174Z,0.00
2023-03-12T04:22:58.158Z,0.00
2023-03-12T04:23:58.161Z,0.00
2023-03-12T04:24:58.141Z,0.00
2023-03-12T04:25:58.163Z,0.00
2023-03-12T04:26:58.121Z,0.00
2023-03-12T04:27:58.104Z,0.00
2023-03-12T04:28:58.109Z,0.00
2023-03-12T04:29:58.082Z,0.00
2023-03-12T04:30:58.139Z,0.00
2023-03-12T04:32:03.128Z,0.00
2023-03-12T04:32:58.047Z,0.00
2023-03-12T04:33:58.057Z,0.00
2023-03-12T04:34:58.032Z,0.00
2023-03-12T04:35:58.067Z,0.00
2023-03-12T04:36:58.007Z,0.00
2023-03-12T04:37:58.037Z,0.00
2023-03-12T04:38:57.993Z,0.00
2023-03-12T04:39:57.976Z,0.00
2023-03-12T04:40:57.960Z,0.00
2023-03-12T04:41:57.951Z,0.00
2023-03-12T04:43:02.962Z,0.00
2023-03-12T04:43:57.998Z,0.00
2023-03-12T04:44:57.922Z,0.00
2023-03-12T04:45:57.913Z,0.00
2023-03-12T04:46:58.022Z,0.00
2023-03-12T04:47:57.919Z,0.00
2023-03-12T04:48:57.888Z,0.00
2023-03-12T04:49:57.920Z,0.00
2023-03-12T04:50:57.858Z,0.00
2023-03-12T04:51:57.847Z,0.00
2023-03-12T04:52:57.845Z,0.00
2023-03-12T04:54:02.851Z,0.00
2023-03-12T04:54:57.824Z,0.00
2023-03-12T04:55:57.820Z,0.00
2023-03-12T04:56:57.794Z,0.00
2023-03-12T04:57:57.782Z,0.00
2023-03-12T04:58:57.778Z,0.00
2023-03-12T04:59:57.762Z,0.00
2023-03-12T05:00:57.758Z,0.00
2023-03-12T05:01:57.784Z,0.00
2023-03-12T05:02:57.750Z,0.00
2023-03-12T05:03:57.865Z,0.00
2023-03-12T05:05:02.729Z,0.00
2023-03-12T05:05:57.702Z,0.00
2023-03-12T05:06:57.682Z,0.00
2023-03-12T05:07:57.716Z,0.00
2023-03-12T05:08:57.678Z,0.00
2023-03-12T05:09:57.659Z,0.00
2023-03-12T05:10:57.639Z,0.00
2023-03-12T05:11:57.627Z,0.00
2023-03-12T05:12:57.620Z,0.00
2023-03-12T05:13:57.657Z,0.00
2023-03-12T05:14:57.600Z,0.00
2023-03-12T05:16:02.650Z,0.00
2023-03-12T05:16:57.575Z,0.00
2023-03-12T05:17:57.576Z,0.00
2023-03-12T05:18:57.567Z,0.00
2023-03-12T05:19:57.617Z,0.00
2023-03-12T05:20:57.530Z,0.00
2023-03-12T05:21:57.517Z,0.00
2023-03-12T05:22:57.508Z,0.00
2023-03-12T05:23:57.506Z,0.00
2023-03-12T05:24:57.489Z,0.00
2023-03-12T05:25:57.516Z,4.00
2023-03-12T05:27:02.485Z,4.00
2023-03-12T05:27:57.466Z,0.00
2023-03-12T05:28:57.457Z,4.00
2023-03-12T05:29:57.431Z,8.00
2023-03-12T05:30:57.433Z,8.00
2023-03-12T05:31:57.499Z,8.00
2023-03-12T05:32:57.526Z,8.00
2023-03-12T05:33:57.408Z,8.00
2023-03-12T05:34:57.380Z,12.00
2023-03-12T05:35:57.508Z,16.00
2023-03-12T05:36:57.356Z,12.00
2023-03-12T05:38:02.410Z,16.00
2023-03-12T05:38:57.344Z,16.00
2023-03-12T05:39:57.322Z,16.00
2023-03-12T05:40:57.327Z,20.00
2023-03-12T05:41:57.336Z,20.00
2023-03-12T05:42:57.302Z,24.00
2023-03-12T05:43:57.355Z,28.00
2023-03-12T05:44:57.269Z,36.00
2023-03-12T05:45:57.297Z,44.00
2023-03-12T05:46:59.061Z,52.00
2023-03-12T05:47:57.237Z,60.00
2023-03-12T05:49:02.258Z,68.00
2023-03-12T05:49:57.264Z,72.00
2023-03-12T05:50:57.203Z,80.00
2023-03-12T05:51:57.225Z,84.00
2023-03-12T05:52:57.185Z,88.00
2023-03-12T05:53:57.166Z,96.00
2023-03-12T05:54:57.172Z,100.00
2023-03-12T05:55:57.189Z,108.00
2023-03-12T05:56:57.133Z,116.00
2023-03-12T05:57:57.119Z,124.00
2023-03-12T05:58:57.166Z,124.00
2023-03-12T06:00:02.146Z,120.00
2023-03-12T06:00:57.096Z,120.00
2023-03-12T06:01:57.197Z,132.00
2023-03-12T06:02:57.081Z,148.00
2023-03-12T06:03:57.073Z,164.00
2023-03-12T06:04:57.053Z,176.00
2023-03-12T06:05:57.043Z,184.00
2023-03-12T06:06:57.025Z,188.00
2023-03-12T06:07:57.063Z,196.00
2023-03-12T06:08:57.002Z,196.00
2023-03-12T06:09:57.006Z,200.00
2023-03-12T06:11:01.997Z,204.00
2023-03-12T06:11:56.964Z,224.00
2023-03-12T06:12:56.959Z,228.00
2023-03-12T06:13:56.994Z,236.00
2023-03-12T06:14:56.941Z,248.00
2023-03-12T06:15:56.922Z,260.00
2023-03-12T06:16:57.031Z,272.00
2023-03-12T06:17:56.902Z,284.00
2023-03-12T06:18:56.905Z,304.00
2023-03-12T06:19:56.883Z,328.00
2023-03-12T06:20:56.880Z,340.00
2023-03-12T06:22:01.874Z,352.00
2023-03-12T06:22:56.846Z,360.00
2023-03-12T06:23:56.857Z,372.00
2023-03-12T06:24:56.839Z,388.00
2023-03-12T06:25:56.814Z,424.00
2023-03-12T06:26:56.836Z,472.00
2023-03-12T06:27:56.787Z,512.00
2023-03-12T06:28:56.782Z,512.00
2023-03-12T06:29:56.777Z,500.00
2023-03-12T06:30:56.763Z,520.00
2023-03-12T06:31:56.823Z,548.00
2023-03-12T06:33:01.798Z,552.00
2023-03-12T06:33:56.727Z,560.00
2023-03-12T06:34:56.728Z,588.00
2023-03-12T06:35:56.726Z,592.00
2023-03-12T06:36:56.689Z,580.00
2023-03-12T06:37:56.677Z,564.00
2023-03-12T06:38:57.373Z,548.00
2023-03-12T06:39:56.704Z,532.00
2023-03-12T06:40:56.660Z,544.00
2023-03-12T06:41:56.638Z,608.00
2023-03-12T06:42:56.657Z,600.00
2023-03-12T06:44:01.661Z,628.00
2023-03-12T06:44:56.638Z,820.00
2023-03-12T06:45:56.668Z,976.00
2023-03-12T06:46:56.579Z,980.00
2023-03-12T06:47:56.566Z,1144.00
2023-03-12T06:48:56.557Z,1296.00
2023-03-12T06:49:56.546Z,1104.00
2023-03-12T06:50:56.604Z,1004.00
2023-03-12T06:51:56.523Z,1204.00
2023-03-12T06:52:56.514Z,1080.00
2023-03-12T06:53:56.507Z,916.00
2023-03-12T06:55:01.549Z,1056.00
2023-03-12T06:55:56.491Z,880.00
2023-03-12T06:56:56.488Z,740.00
2023-03-12T06:57:56.458Z,940.00
2023-03-12T06:58:56.505Z,868.00
2023-03-12T06:59:56.437Z,1112.00
2023-03-12T07:00:56.446Z,1080.00
2023-03-12T07:01:56.466Z,1076.00
2023-03-12T07:02:56.448Z,1124.00
2023-03-12T07:03:56.403Z,1076.00
2023-03-12T07:04:56.400Z,1016.00
2023-03-12T07:06:01.405Z,952.00
2023-03-12T07:06:56.401Z,976.00
2023-03-12T07:07:56.355Z,1004.00
2023-03-12T07:08:56.369Z,888.00
2023-03-12T07:09:56.330Z,864.00
2023-03-12T07:10:56.355Z,860.00
2023-03-12T07:11:56.333Z,884.00
2023-03-12T07:12:56.311Z,936.00
2023-03-12T07:13:56.293Z,972.00
2023-03-12T07:14:56.306Z,1024.00
2023-03-12T07:15:56.388Z,1172.00
2023-03-12T07:17:01.285Z,1384.00
2023-03-12T07:17:56.248Z,1660.00
2023-03-12T07:18:56.241Z,2128.00
2023-03-12T07:19:56.231Z,2840.00
2023-03-12T07:20:56.283Z,2888.00
2023-03-12T07:21:56.211Z,2484.00
2023-03-12T07:22:56.205Z,2344.00
2023-03-12T07:23:56.186Z,2296.00
2023-03-12T07:24:56.171Z,2100.00
2023-03-12T07:25:56.173Z,2136.00
2023-03-12T07:26:56.199Z,2148.00
2023-03-12T07:28:01.159Z,2152.00
2023-03-12T07:28:56.128Z,2092.00
2023-03-12T07:29:56.119Z,2040.00
2023-03-12T07:30:56.123Z,1740.00
2023-03-12T07:31:56.104Z,1628.00
2023-03-12T07:32:56.278Z,1768.00
2023-03-12T07:33:56.184Z,1768.00
2023-03-12T07:34:56.063Z,1588.00
2023-03-12T07:35:56.193Z,1416.00
2023-03-12T07:36:56.128Z,1496.00
2023-03-12T07:37:56.087Z,1460.00
2023-03-12T07:39:01.086Z,1300.00
2023-03-12T07:39:56.208Z,1384.00
2023-03-12T07:40:56.120Z,1836.00
2023-03-12T07:41:56.024Z,2452.00
2023-03-12T07:42:56.019Z,2512.00
2023-03-12T07:43:55.993Z,2328.00
2023-03-12T07:44:55.978Z,2260.00
2023-03-12T07:45:55.951Z,2300.00
2023-03-12T07:46:56.030Z,2212.00
2023-03-12T07:47:55.979Z,2280.00
2023-03-12T07:48:55.914Z,2164.00
2023-03-12T07:50:01.003Z,2148.00
2023-03-12T07:50:55.899Z,2316.00
2023-03-12T07:51:55.988Z,2272.00
2023-03-12T07:52:55.861Z,2288.00
2023-03-12T07:53:55.846Z,2308.00
2023-03-12T07:54:55.945Z,2276.00
2023-03-12T07:55:56.019Z,2248.00
2023-03-12T07:56:56.034Z,2124.00
2023-03-12T07:57:55.892Z,2336.00
2023-03-12T07:58:55.978Z,2584.00
2023-03-12T07:59:55.804Z,2976.00
2023-03-12T08:01:00.807Z,2768.00
2023-03-12T08:01:55.972Z,2384.00
2023-03-12T08:02:55.914Z,2472.00
2023-03-12T08:03:55.837Z,2536.00
2023-03-12T08:04:55.794Z,2440.00
2023-03-12T08:05:55.845Z,2316.00
2023-03-12T08:06:55.776Z,2124.00
2023-03-12T08:07:55.693Z,2088.00
2023-03-12T08:08:55.740Z,2144.00
2023-03-12T08:09:55.761Z,2144.00
2023-03-12T08:10:55.668Z,2192.00
2023-03-12T08:12:00.769Z,2088.00
2023-03-12T08:12:55.683Z,2040.00
2023-03-12T08:13:55.635Z,2068.00
2023-03-12T08:14:55.640Z,2036.00
2023-03-12T08:15:55.672Z,1924.00
2023-03-12T08:16:55.604Z,1880.00
2023-03-12T08:17:55.585Z,1872.00
2023-03-12T08:18:55.574Z,2000.00
2023-03-12T08:19:55.561Z,2056.00
2023-03-12T08:20:55.556Z,2040.00
2023-03-12T08:21:55.626Z,1828.00
2023-03-12T08:23:00.553Z,1800.00
2023-03-12T08:23:55.517Z,1872.00
2023-03-12T08:24:55.512Z,1968.00
2023-03-12T08:25:55.497Z,1980.00
2023-03-12T08:26:55.498Z,2076.00
2023-03-12T08:27:55.528Z,2352.00
2023-03-12T08:28:55.469Z,2384.00
2023-03-12T08:29:55.456Z,2440.00
2023-03-12T08:30:55.467Z,2460.00
2023-03-12T08:32:04.461Z,2664.00
2023-03-12T08:32:56.465Z,3348.00
2023-03-12T08:34:00.465Z,3636.00
2023-03-12T08:34:55.406Z,3548.00
2023-03-12T08:35:55.428Z,3328.00
2023-03-12T08:36:55.387Z,3232.00
2023-03-12T08:37:55.364Z,3816.00
2023-03-12T08:38:55.365Z,5216.00
2023-03-12T08:39:55.386Z,5936.00
2023-03-12T08:40:55.333Z,5540.00
2023-03-12T08:41:55.532Z,4820.00
2023-03-12T08:42:55.320Z,4128.00
2023-03-12T08:43:55.331Z,3780.00
2023-03-12T08:45:00.313Z,2788.00
2023-03-12T08:45:55.516Z,2556.00
2023-03-12T08:46:55.309Z,2972.00
2023-03-12T08:47:55.271Z,3600.00
2023-03-12T08:48:55.248Z,4860.00
2023-03-12T08:49:55.234Z,4396.00
2023-03-12T08:50:55.226Z,3284.00
2023-03-12T08:51:55.235Z,3344.00
2023-03-12T08:52:55.240Z,4656.00
2023-03-12T08:53:55.217Z,5680.00
2023-03-12T08:54:55.185Z,4752.00
2023-03-12T08:56:00.206Z,4188.00
2023-03-12T08:56:55.185Z,3632.00
2023-03-12T08:57:55.161Z,3664.00
2023-03-12T08:58:55.166Z,3496.00
2023-03-12T08:59:55.126Z,4064.00
2023-03-12T09:00:55.119Z,4216.00
2023-03-12T09:01:55.116Z,3692.00
2023-03-12T09:02:55.152Z,4304.00
2023-03-12T09:03:55.102Z,4864.00
2023-03-12T09:04:55.075Z,4592.00
2023-03-12T09:05:55.066Z,3960.00
2023-03-12T09:07:00.152Z,3540.00
2023-03-12T09:07:55.061Z,3528.00
2023-03-12T09:08:55.035Z,3988.00
2023-03-12T09:09:55.022Z,3808.00
2023-03-12T09:10:55.017Z,4052.00
2023-03-12T09:11:55.011Z,4148.00
2023-03-12T09:12:54.989Z,4284.00
2023-03-12T09:14:28.033Z,4200.00
2023-03-12T09:15:03.122Z,3780.00
2023-03-12T09:15:55.957Z,3300.00
2023-03-12T09:16:55.011Z,3928.00
2023-03-12T09:17:59.977Z,3500.00
2023-03-12T09:18:54.922Z,3964.00
2023-03-12T09:19:54.957Z,4636.00
2023-03-12T09:20:54.912Z,5564.00
2023-03-12T09:21:54.916Z,6084.00
2023-03-12T09:22:54.876Z,5680.00
2023-03-12T09:23:54.865Z,5060.00
2023-03-12T09:24:54.859Z,5244.00
2023-03-12T09:25:54.877Z,5500.00
2023-03-12T09:26:54.852Z,6520.00
2023-03-12T09:27:54.825Z,6212.00
2023-03-12T09:28:59.832Z,6056.00
2023-03-12T09:30:00.508Z,5444.00
2023-03-12T09:30:55.837Z,5648.00
2023-03-12T09:31:54.837Z,5648.00
2023-03-12T09:32:54.792Z,5520.00
2023-03-12T09:33:54.772Z,4732.00
2023-03-12T09:34:54.748Z,5152.00
2023-03-12T09:35:54.809Z,6632.00
2023-03-12T09:36:54.724Z,6248.00
2023-03-12T09:37:54.725Z,4720.00
2023-03-12T09:38:54.695Z,4656.00
2023-03-12T09:39:59.740Z,4632.00
2023-03-12T09:40:54.682Z,5008.00
2023-03-12T09:41:54.680Z,5200.00
2023-03-12T09:42:54.652Z,5360.00
2023-03-12T09:43:54.676Z,5716.00
2023-03-12T09:44:54.644Z,5556.00
2023-03-12T09:45:54.654Z,7088.00
2023-03-12T09:46:54.606Z,7536.00
2023-03-12T09:47:54.592Z,8416.00
2023-03-12T09:48:54.582Z,8180.00
2023-03-12T09:49:54.597Z,6620.00
2023-03-12T09:50:59.601Z,6720.00
2023-03-12T09:51:54.557Z,7384.00
2023-03-12T09:52:54.538Z,7700.00
2023-03-12T09:53:54.550Z,7200.00
2023-03-12T09:54:54.512Z,7500.00
2023-03-12T09:55:54.576Z,6720.00
2023-03-12T09:56:54.503Z,6256.00
2023-03-12T09:57:54.484Z,6376.00
2023-03-12T09:58:54.483Z,5680.00
2023-03-12T09:59:54.459Z,7124.00
2023-03-12T10:00:54.457Z,6680.00
2023-03-12T10:01:59.528Z,6036.00
2023-03-12T10:02:54.502Z,5696.00
2023-03-12T10:03:54.440Z,5824.00
2023-03-12T10:04:59.927Z,4944.00
2023-03-12T10:05:54.432Z,6104.00
2023-03-12T10:06:54.393Z,9468.00
2023-03-12T10:07:54.399Z,9736.00
2023-03-12T10:08:54.362Z,8048.00
2023-03-12T10:09:54.351Z,8272.00
2023-03-12T10:10:54.357Z,6452.00
2023-03-12T10:11:54.327Z,6220.00
2023-03-12T10:12:59.335Z,6524.00
2023-03-12T10:13:54.319Z,7420.00
2023-03-12T10:14:54.388Z,7916.00
2023-03-12T10:15:54.343Z,10648.00
2023-03-12T10:16:54.282Z,9540.00
2023-03-12T10:17:54.398Z,9900.00
2023-03-12T10:18:54.307Z,7988.00
2023-03-12T10:19:54.236Z,7864.00
2023-03-12T10:20:54.250Z,7516.00
2023-03-12T10:21:54.258Z,7168.00
2023-03-12T10:22:54.204Z,6960.00
2023-03-12T10:23:59.224Z,6760.00
2023-03-12T10:24:54.184Z,7264.00
2023-03-12T10:25:54.169Z,9500.00
2023-03-12T10:26:54.168Z,13060.00
2023-03-12T10:27:54.217Z,20768.00
2023-03-12T10:28:54.145Z,30592.00
2023-03-12T10:29:54.125Z,32896.00
2023-03-12T10:30:54.175Z,32832.00
2023-03-12T10:31:54.112Z,19008.00
2023-03-12T10:32:54.164Z,17856.00
2023-03-12T10:33:54.144Z,18976.00
2023-03-12T10:34:59.088Z,19904.00
2023-03-12T10:35:54.168Z,17856.00
2023-03-12T10:36:54.055Z,16544.00
2023-03-12T10:37:54.059Z,11468.00
2023-03-12T10:38:54.025Z,14048.00
2023-03-12T10:39:54.036Z,12076.00
2023-03-12T10:40:54.000Z,11292.00
2023-03-12T10:41:54.002Z,11304.00
2023-03-12T10:42:53.983Z,10576.00
2023-03-12T10:43:53.973Z,12032.00
2023-03-12T10:44:53.958Z,12404.00
2023-03-12T10:45:59.008Z,11436.00
2023-03-12T10:46:53.954Z,10392.00
2023-03-12T10:47:53.934Z,8860.00
2023-03-12T10:48:53.910Z,7828.00
2023-03-12T10:49:53.901Z,5804.00
2023-03-12T10:50:53.888Z,4964.00
2023-03-12T10:51:53.900Z,5680.00
2023-03-12T10:52:53.886Z,7164.00
2023-03-12T10:53:53.876Z,7756.00
2023-03-12T10:54:53.888Z,7612.00
2023-03-12T10:55:53.838Z,7060.00
2023-03-12T10:56:58.844Z,5904.00
2023-03-12T10:57:53.953Z,6444.00
2023-03-12T10:58:53.802Z,5444.00
2023-03-12T10:59:53.795Z,5168.00
2023-03-12T11:00:53.783Z,5732.00
2023-03-12T11:01:53.883Z,5388.00
2023-03-12T11:02:53.772Z,6268.00
2023-03-12T11:03:53.795Z,5228.00
2023-03-12T11:04:53.740Z,4524.00
2023-03-12T11:05:53.783Z,5152.00
2023-03-12T11:06:53.714Z,4628.00
2023-03-12T11:07:58.732Z,5680.00
2023-03-12T11:09:00.544Z,5756.00
2023-03-12T11:09:54.708Z,6644.00
2023-03-12T11:10:53.671Z,7628.00
2023-03-12T11:11:53.656Z,7800.00
2023-03-12T11:12:53.654Z,7884.00
2023-03-12T11:13:53.633Z,6140.00
2023-03-12T11:14:53.684Z,5824.00
2023-03-12T11:15:53.662Z,5460.00
2023-03-12T11:16:53.677Z,5932.00
2023-03-12T11:17:53.613Z,6264.00
2023-03-12T11:18:58.605Z,6548.00
2023-03-12T11:19:53.566Z,6920.00
2023-03-12T11:20:53.554Z,8096.00
2023-03-12T11:21:53.560Z,9112.00
2023-03-12T11:22:53.580Z,9576.00
2023-03-12T11:23:53.523Z,8804.00
2023-03-12T11:24:53.539Z,8996.00
2023-03-12T11:25:53.615Z,8988.00
2023-03-12T11:26:53.504Z,8864.00
2023-03-12T11:27:53.589Z,8180.00
2023-03-12T11:28:53.477Z,8940.00
2023-03-12T11:29:58.481Z,9208.00
2023-03-12T11:30:53.497Z,10712.00
2023-03-12T11:31:53.502Z,10484.00
2023-03-12T11:32:53.541Z,10996.00
2023-03-12T11:33:53.434Z,13208.00
2023-03-12T11:34:53.423Z,13688.00
2023-03-12T11:35:53.495Z,19232.00
2023-03-12T11:36:53.378Z,22496.00
2023-03-12T11:37:53.370Z,17568.00
2023-03-12T11:38:53.384Z,13620.00
2023-03-12T11:39:53.384Z,13436.00
2023-03-12T11:40:58.395Z,14312.00
2023-03-12T11:41:53.336Z,20096.00
2023-03-12T11:42:53.322Z,18368.00
2023-03-12T11:43:53.310Z,12956.00
2023-03-12T11:44:53.295Z,15032.00
2023-03-12T11:45:53.336Z,17376.00
2023-03-12T11:46:53.349Z,17696.00
2023-03-12T11:47:53.296Z,17440.00
2023-03-12T11:48:53.315Z,18240.00
2023-03-12T11:49:53.233Z,16576.00
2023-03-12T11:50:53.224Z,17216.00
2023-03-12T11:51:58.270Z,17568.00
2023-03-12T11:52:53.201Z,19328.00
2023-03-12T11:53:53.213Z,12892.00
2023-03-12T11:54:53.175Z,20544.00
2023-03-12T11:55:53.166Z,15272.00
2023-03-12T11:56:53.177Z,16896.00
2023-03-12T11:57:53.181Z,22560.00
2023-03-12T11:58:53.149Z,19936.00
2023-03-12T11:59:53.125Z,17088.00
2023-03-12T12:00:53.139Z,17824.00
2023-03-12T12:01:53.128Z,23520.00
2023-03-12T12:02:58.143Z,13464.00
2023-03-12T12:03:53.156Z,11460.00
2023-03-12T12:04:53.065Z,12652.00
2023-03-12T12:05:53.058Z,30720.00
2023-03-12T12:06:53.043Z,22848.00
2023-03-12T12:07:53.037Z,12600.00
2023-03-12T12:08:53.031Z,14464.00
2023-03-12T12:09:53.020Z,13932.00
2023-03-12T12:10:53.000Z,14164.00
2023-03-12T12:11:53.012Z,11756.00
2023-03-12T12:12:53.015Z,10200.00
2023-03-12T12:13:58.005Z,12620.00
2023-03-12T12:14:52.962Z,9708.00
2023-03-12T12:15:52.988Z,9984.00
2023-03-12T12:16:52.952Z,13496.00
2023-03-12T12:17:52.931Z,9000.00
2023-03-12T12:18:52.918Z,11532.00
2023-03-12T12:19:52.921Z,9336.00
2023-03-12T12:20:52.886Z,10968.00
2023-03-12T12:21:52.903Z,9928.00
2023-03-12T12:22:52.869Z,8840.00
2023-03-12T12:23:52.864Z,9044.00
2023-03-12T12:24:57.875Z,8636.00
2023-03-12T12:25:52.843Z,11592.00
2023-03-12T12:26:52.824Z,16960.00
2023-03-12T12:27:52.892Z,14500.00
2023-03-12T12:28:52.822Z,9448.00
2023-03-12T12:29:52.804Z,7128.00
2023-03-12T12:30:52.778Z,6416.00
2023-03-12T12:31:52.871Z,8016.00
2023-03-12T12:32:52.854Z,7020.00
2023-03-12T12:33:52.767Z,11336.00
2023-03-12T12:34:52.742Z,7540.00
2023-03-12T12:35:57.787Z,7628.00
2023-03-12T12:36:52.711Z,6060.00